Aérodrome :
LOGIN :

S'inscrire | Disclaimer

   EN    FR    IT 

 










Légende :    VFR   VFR Marginal   IFR   IFR Intensif   IFR Très Intensif
Visi : 
Plafond : 
>= 8 km
>= 3000ft
5 à 8 km
1000 à 3000 ft
1500m à 5 km
500 à 1000 ft
800 à 1500m
200 à 500 ft
< 800m
< 200 ft
Symboles :   Orages  Brouillard  Fortes neiges  Fortes précipitations  Vent > 20 kt
SIGMETs :   Divers  Orages  Givrage  Turbulence  Onde Orograph.  Cendres Volcan.






- Altitude de l'aérodrome : 485 ft
- Code IATA : QSA


LELL - Sabadell

DERNIER METAR :
  • 231100Z 20005KT 140V240 9000 NSC 19/09 Q1032

METARs EXPIRÉS :
  • 231030Z 19005KT 150V210 9000 NSC 16/10 Q1032
  • 231000Z 13002KT 9000 NSC 16/10 Q1033
  • 230930Z VRB01KT 7000 NSC 13/09 Q1033
  • 230900Z 00000KT 7000 FEW010 12/09 Q1033
  • 230830Z 00000KT 7000 FEW005 09/07 Q1033
  • 230800Z 00000KT 7000 FEW005 07/06 Q1033

TAF TAF LELL
Valide du 23 à 09h jusqu'au 24 à 09h UTC


230800Z 2309/2409 VRB03KT 9999 FEW014 TX22/2313Z TN05/2406Z
BECMG 2310/2312 26007KT
TEMPO 2315/2317 21007KT
BECMG 2319/2321 VRB03KT



MET'MAP, la Météo Aéronautique d'un coup d'oeil ! - Copyright ORBIFLY Décembre 2007 - Disclaimer

ORBIFLY MET'MAP TEAM :

Programmation & Développement : Alexandra Zaïnal
Sur une idée originale de : Baudouin d'Aumeries
Assistance à la programmation : Marc-Olivier Méhu
Soutien technique & logistique : Manuel Goepfert

Contact : metmap@orbifly.com




SOURCES & CREDITS :

   NOAA